sensor_id;sensor_type;location;lat;lon;timestamp;pressure;altitude;pressure_sealevel;temperature;humidity
20624;BME280;10471;42.736;23.346;2024-03-08T00:00:11;95586.84;;;5.89;100.00
20624;BME280;10471;42.736;23.346;2024-03-08T00:02:38;95595.00;;;5.92;100.00
20624;BME280;10471;42.736;23.346;2024-03-08T00:05:06;95593.19;;;5.93;100.00
20624;BME280;10471;42.736;23.346;2024-03-08T00:07:31;95590.50;;;5.88;100.00
20624;BME280;10471;42.736;23.346;2024-03-08T00:09:57;95593.34;;;5.86;100.00
20624;BME280;10471;42.736;23.346;2024-03-08T00:12:23;95593.03;;;5.83;100.00
20624;BME280;10471;42.736;23.346;2024-03-08T00:14:51;95588.84;;;5.82;100.00
20624;BME280;10471;42.736;23.346;2024-03-08T00:17:16;95588.28;;;5.80;100.00
20624;BME280;10471;42.736;23.346;2024-03-08T00:19:41;95593.19;;;5.77;100.00
20624;BME280;10471;42.736;23.346;2024-03-08T00:22:07;95589.78;;;5.76;100.00
20624;BME280;10471;42.736;23.346;2024-03-08T00:24:33;95586.59;;;5.74;100.00
20624;BME280;10471;42.736;23.346;2024-03-08T00:26:58;95590.22;;;5.73;100.00
20624;BME280;10471;42.736;23.346;2024-03-08T00:29:24;95582.56;;;5.67;100.00
20624;BME280;10471;42.736;23.346;2024-03-08T00:31:49;95584.84;;;5.63;100.00
20624;BME280;10471;42.736;23.346;2024-03-08T00:34:15;95584.72;;;5.70;100.00
20624;BME280;10471;42.736;23.346;2024-03-08T00:36:41;95580.13;;;5.60;100.00
20624;BME280;10471;42.736;23.346;2024-03-08T00:39:06;95581.22;;;5.64;100.00
20624;BME280;10471;42.736;23.346;2024-03-08T00:41:32;95582.97;;;5.59;100.00
20624;BME280;10471;42.736;23.346;2024-03-08T00:43:58;95574.75;;;5.50;100.00
20624;BME280;10471;42.736;23.346;2024-03-08T00:46:23;95572.75;;;5.57;100.00
20624;BME280;10471;42.736;23.346;2024-03-08T00:48:49;95571.41;;;5.55;100.00
20624;BME280;10471;42.736;23.346;2024-03-08T00:51:14;95571.41;;;5.55;100.00
20624;BME280;10471;42.736;23.346;2024-03-08T00:53:41;95573.06;;;5.61;100.00
20624;BME280;10471;42.736;23.346;2024-03-08T00:56:07;95565.06;;;5.67;100.00
20624;BME280;10471;42.736;23.346;2024-03-08T00:58:36;95561.47;;;5.73;100.00
20624;BME280;10471;42.736;23.346;2024-03-08T01:01:02;95563.66;;;5.76;100.00
20624;BME280;10471;42.736;23.346;2024-03-08T01:03:27;95555.56;;;5.78;100.00
20624;BME280;10471;42.736;23.346;2024-03-08T01:05:53;95551.94;;;5.79;100.00
20624;BME280;10471;42.736;23.346;2024-03-08T01:08:18;95553.03;;;5.83;100.00
20624;BME280;10471;42.736;23.346;2024-03-08T01:10:43;95542.16;;;5.90;100.00
20624;BME280;10471;42.736;23.346;2024-03-08T01:13:09;95544.47;;;5.87;100.00
20624;BME280;10471;42.736;23.346;2024-03-08T01:15:35;95544.41;;;5.82;100.00
20624;BME280;10471;42.736;23.346;2024-03-08T01:18:00;95542.88;;;5.86;100.00
20624;BME280;10471;42.736;23.346;2024-03-08T01:20:26;95537.97;;;5.89;100.00
20624;BME280;10471;42.736;23.346;2024-03-08T01:22:53;95538.44;;;5.70;100.00
20624;BME280;10471;42.736;23.346;2024-03-08T01:25:18;95533.06;;;5.77;100.00
20624;BME280;10471;42.736;23.346;2024-03-08T01:27:43;95533.06;;;5.77;100.00
20624;BME280;10471;42.736;23.346;2024-03-08T01:30:09;95534.97;;;5.81;100.00
20624;BME280;10471;42.736;23.346;2024-03-08T01:32:35;95527.13;;;5.81;100.00
20624;BME280;10471;42.736;23.346;2024-03-08T01:35:00;95523.94;;;5.79;100.00
20624;BME280;10471;42.736;23.346;2024-03-08T01:37:26;95529.75;;;5.81;100.00
20624;BME280;10471;42.736;23.346;2024-03-08T01:39:51;95523.22;;;5.84;100.00
20624;BME280;10471;42.736;23.346;2024-03-08T01:42:17;95522.47;;;5.83;100.00
20624;BME280;10471;42.736;23.346;2024-03-08T01:44:43;95524.50;;;5.81;100.00
20624;BME280;10471;42.736;23.346;2024-03-08T01:47:10;95518.78;;;5.84;100.00
20624;BME280;10471;42.736;23.346;2024-03-08T01:49:37;95524.63;;;5.91;100.00
20624;BME280;10471;42.736;23.346;2024-03-08T01:52:03;95523.69;;;5.97;100.00
20624;BME280;10471;42.736;23.346;2024-03-08T01:54:29;95524.44;;;5.97;100.00
20624;BME280;10471;42.736;23.346;2024-03-08T01:56:56;95523.06;;;5.90;100.00
20624;BME280;10471;42.736;23.346;2024-03-08T01:59:25;95521.97;;;5.86;100.00
20624;BME280;10471;42.736;23.346;2024-03-08T02:01:54;95522.47;;;5.83;100.00
20624;BME280;10471;42.736;23.346;2024-03-08T02:04:20;95530.44;;;5.77;100.00
20624;BME280;10471;42.736;23.346;2024-03-08T02:06:46;95529.97;;;5.63;100.00
20624;BME280;10471;42.736;23.346;2024-03-08T02:09:13;95524.88;;;5.73;100.00
20624;BME280;10471;42.736;23.346;2024-03-08T02:11:41;95530.03;;;5.68;100.00
20624;BME280;10471;42.736;23.346;2024-03-08T02:14:06;95527.41;;;5.68;100.00
20624;BME280;10471;42.736;23.346;2024-03-08T02:16:32;95527.34;;;5.63;100.00
20624;BME280;10471;42.736;23.346;2024-03-08T02:18:58;95532.44;;;5.53;100.00
20624;BME280;10471;42.736;23.346;2024-03-08T02:21:24;95535.28;;;5.52;100.00
20624;BME280;10471;42.736;23.346;2024-03-08T02:23:49;95538.00;;;5.40;100.00
20624;BME280;10471;42.736;23.346;2024-03-08T02:26:17;95539.44;;;5.31;100.00
20624;BME280;10471;42.736;23.346;2024-03-08T02:28:44;95541.50;;;5.29;100.00
20624;BME280;10471;42.736;23.346;2024-03-08T02:31:09;95539.81;;;5.23;100.00
20624;BME280;10471;42.736;23.346;2024-03-08T02:33:35;95540.25;;;5.16;100.00
20624;BME280;10471;42.736;23.346;2024-03-08T02:36:00;95550.69;;;5.16;100.00
20624;BME280;10471;42.736;23.346;2024-03-08T02:38:26;95546.06;;;5.06;100.00
20624;BME280;10471;42.736;23.346;2024-03-08T02:40:53;95554.47;;;5.08;100.00
20624;BME280;10471;42.736;23.346;2024-03-08T02:43:20;95561.25;;;5.09;100.00
20624;BME280;10471;42.736;23.346;2024-03-08T02:45:47;95561.19;;;5.04;100.00
20624;BME280;10471;42.736;23.346;2024-03-08T02:48:14;95555.19;;;5.04;100.00
20624;BME280;10471;42.736;23.346;2024-03-08T02:50:40;95560.41;;;5.04;100.00
20624;BME280;10471;42.736;23.346;2024-03-08T02:53:07;95557.13;;;4.97;100.00
20624;BME280;10471;42.736;23.346;2024-03-08T02:55:33;95560.00;;;4.95;100.00
20624;BME280;10471;42.736;23.346;2024-03-08T02:58:03;95558.16;;;4.96;100.00
20624;BME280;10471;42.736;23.346;2024-03-08T03:00:30;95556.34;;;4.96;100.00
20624;BME280;10471;42.736;23.346;2024-03-08T03:02:56;95554.00;;;4.95;100.00
20624;BME280;10471;42.736;23.346;2024-03-08T03:05:23;95555.38;;;4.86;100.00
20624;BME280;10471;42.736;23.346;2024-03-08T03:07:49;95557.44;;;4.84;100.00
20624;BME280;10471;42.736;23.346;2024-03-08T03:10:18;95557.91;;;4.81;100.00
20624;BME280;10471;42.736;23.346;2024-03-08T03:12:47;95557.03;;;4.75;100.00
20624;BME280;10471;42.736;23.346;2024-03-08T03:15:14;95554.34;;;4.70;100.00
20624;BME280;10471;42.736;23.346;2024-03-08T03:17:39;95561.84;;;4.67;100.00
20624;BME280;10471;42.736;23.346;2024-03-08T03:20:08;95570.69;;;4.66;100.00
20624;BME280;10471;42.736;23.346;2024-03-08T03:22:39;95567.41;;;4.59;100.00
20624;BME280;10471;42.736;23.346;2024-03-08T03:25:07;95574.22;;;4.60;100.00
20624;BME280;10471;42.736;23.346;2024-03-08T03:27:32;95570.03;;;4.59;100.00
20624;BME280;10471;42.736;23.346;2024-03-08T03:29:58;95563.69;;;4.55;100.00
20624;BME280;10471;42.736;23.346;2024-03-08T03:32:44;95570.03;;;4.59;100.00
20624;BME280;10471;42.736;23.346;2024-03-08T03:35:12;95566.53;;;4.53;100.00
20624;BME280;10471;42.736;23.346;2024-03-08T03:37:38;95567.97;;;4.61;100.00
20624;BME280;10471;42.736;23.346;2024-03-08T03:40:05;95577.63;;;4.60;100.00
20624;BME280;10471;42.736;23.346;2024-03-08T03:42:31;95584.13;;;4.58;100.00
20624;BME280;10471;42.736;23.346;2024-03-08T03:44:56;95583.63;;;4.61;100.00
20624;BME280;10471;42.736;23.346;2024-03-08T03:47:21;95580.94;;;4.56;100.00
20624;BME280;10471;42.736;23.346;2024-03-08T03:49:47;95584.22;;;4.63;100.00
20624;BME280;10471;42.736;23.346;2024-03-08T03:52:12;95594.41;;;4.64;100.00
20624;BME280;10471;42.736;23.346;2024-03-08T03:54:37;95587.34;;;4.65;100.00
20624;BME280;10471;42.736;23.346;2024-03-08T03:57:04;95587.16;;;4.66;100.00
20624;BME280;10471;42.736;23.346;2024-03-08T03:59:29;95587.34;;;4.65;100.00
20624;BME280;10471;42.736;23.346;2024-03-08T04:01:55;95595.66;;;4.62;100.00
20624;BME280;10471;42.736;23.346;2024-03-08T04:04:21;95600.59;;;4.75;100.00
20624;BME280;10471;42.736;23.346;2024-03-08T04:06:46;95598.22;;;4.73;100.00
20624;BME280;10471;42.736;23.346;2024-03-08T04:09:12;95600.59;;;4.75;100.00
20624;BME280;10471;42.736;23.346;2024-03-08T04:11:38;95611.34;;;4.78;100.00
20624;BME280;10471;42.736;23.346;2024-03-08T04:14:04;95607.50;;;4.81;100.00
20624;BME280;10471;42.736;23.346;2024-03-08T04:16:30;95609.78;;;4.77;100.00
20624;BME280;10471;42.736;23.346;2024-03-08T04:18:57;95614.22;;;4.77;100.00
20624;BME280;10471;42.736;23.346;2024-03-08T04:21:22;95611.13;;;4.80;100.00
20624;BME280;10471;42.736;23.346;2024-03-08T04:23:47;95616.34;;;4.80;100.00
20624;BME280;10471;42.736;23.346;2024-03-08T04:26:13;95614.22;;;4.77;100.00
20624;BME280;10471;42.736;23.346;2024-03-08T04:28:39;95614.22;;;4.77;100.00
20624;BME280;10471;42.736;23.346;2024-03-08T04:31:06;95616.25;;;4.75;100.00
20624;BME280;10471;42.736;23.346;2024-03-08T04:33:31;95614.69;;;4.74;100.00
20624;BME280;10471;42.736;23.346;2024-03-08T04:35:57;95618.75;;;4.70;100.00
20624;BME280;10471;42.736;23.346;2024-03-08T04:38:23;95614.69;;;4.74;100.00
20624;BME280;10471;42.736;23.346;2024-03-08T04:40:50;95617.94;;;4.81;100.00
20624;BME280;10471;42.736;23.346;2024-03-08T04:43:16;95621.66;;;4.85;100.00
20624;BME280;10471;42.736;23.346;2024-03-08T04:45:44;95628.94;;;4.83;100.00
20624;BME280;10471;42.736;23.346;2024-03-08T04:48:09;95630.97;;;4.81;100.00
20624;BME280;10471;42.736;23.346;2024-03-08T04:50:35;95630.06;;;4.87;100.00
20624;BME280;10471;42.736;23.346;2024-03-08T04:53:00;95634.69;;;4.96;100.00
20624;BME280;10471;42.736;23.346;2024-03-08T04:55:25;95633.41;;;4.99;100.00
20624;BME280;10471;42.736;23.346;2024-03-08T04:57:51;95635.22;;;4.98;100.00
20624;BME280;10471;42.736;23.346;2024-03-08T05:00:16;95645.44;;;5.00;100.00
20624;BME280;10471;42.736;23.346;2024-03-08T05:02:42;95646.56;;;5.04;100.00
20624;BME280;10471;42.736;23.346;2024-03-08T05:05:08;95641.88;;;5.06;100.00
20624;BME280;10471;42.736;23.346;2024-03-08T05:07:38;95647.44;;;5.09;100.00
20624;BME280;10471;42.736;23.346;2024-03-08T05:10:05;95646.75;;;5.14;100.00
20624;BME280;10471;42.736;23.346;2024-03-08T05:12:32;95646.25;;;5.17;100.00
20624;BME280;10471;42.736;23.346;2024-03-08T05:14:57;95656.16;;;5.15;100.00
20624;BME280;10471;42.736;23.346;2024-03-08T05:17:22;95659.22;;;5.12;100.00
20624;BME280;10471;42.736;23.346;2024-03-08T05:19:49;95658.28;;;5.18;100.00
20624;BME280;10471;42.736;23.346;2024-03-08T05:22:15;95657.75;;;5.16;100.00
20624;BME280;10471;42.736;23.346;2024-03-08T05:24:40;95662.22;;;5.04;100.00
20624;BME280;10471;42.736;23.346;2024-03-08T05:27:05;95665.16;;;5.07;100.00
20624;BME280;10471;42.736;23.346;2024-03-08T05:29:31;95666.19;;;5.06;100.00
20624;BME280;10471;42.736;23.346;2024-03-08T05:31:57;95676.59;;;5.18;100.00
20624;BME280;10471;42.736;23.346;2024-03-08T05:34:23;95680.53;;;5.20;100.00
20624;BME280;10471;42.736;23.346;2024-03-08T05:36:50;95695.03;;;5.27;100.00
20624;BME280;10471;42.736;23.346;2024-03-08T05:39:16;95696.63;;;5.28;100.00
20624;BME280;10471;42.736;23.346;2024-03-08T05:41:43;95699.34;;;5.33;100.00
20624;BME280;10471;42.736;23.346;2024-03-08T05:44:09;95701.72;;;5.35;100.00
20624;BME280;10471;42.736;23.346;2024-03-08T05:46:35;95707.25;;;5.38;100.00
20624;BME280;10471;42.736;23.346;2024-03-08T05:49:02;95704.56;;;5.33;100.00
20624;BME280;10471;42.736;23.346;2024-03-08T05:51:40;95712.16;;;5.35;100.00
20624;BME280;10471;42.736;23.346;2024-03-08T05:54:13;95717.63;;;5.33;100.00
20624;BME280;10471;42.736;23.346;2024-03-08T05:56:39;95721.25;;;5.32;100.00
20624;BME280;10471;42.736;23.346;2024-03-08T05:59:09;95723.66;;;5.34;100.00
20624;BME280;10471;42.736;23.346;2024-03-08T06:01:34;95720.81;;;5.35;100.00
20624;BME280;10471;42.736;23.346;2024-03-08T06:04:02;95723.31;;;5.30;100.00
20624;BME280;10471;42.736;23.346;2024-03-08T06:06:28;95725.00;;;5.36;100.00
20624;BME280;10471;42.736;23.346;2024-03-08T06:08:54;95723.34;;;5.47;100.00
20624;BME280;10471;42.736;23.346;2024-03-08T06:11:24;95727.88;;;5.51;100.00
20624;BME280;10471;42.736;23.346;2024-03-08T06:13:51;95728.06;;;5.61;100.00
20624;BME280;10471;42.736;23.346;2024-03-08T06:16:17;95723.94;;;5.65;100.00
20624;BME280;10471;42.736;23.346;2024-03-08T06:18:42;95735.06;;;5.72;100.00
20624;BME280;10471;42.736;23.346;2024-03-08T06:21:08;95730.97;;;5.76;100.00
20624;BME280;10471;42.736;23.346;2024-03-08T06:23:37;95731.13;;;5.86;100.00
20624;BME280;10471;42.736;23.346;2024-03-08T06:26:06;95744.28;;;5.91;100.00
20624;BME280;10471;42.736;23.346;2024-03-08T06:28:31;95735.50;;;5.97;100.00
20624;BME280;10471;42.736;23.346;2024-03-08T06:31:03;95747.72;;;6.08;100.00
20624;BME280;10471;42.736;23.346;2024-03-08T06:33:29;95734.13;;;6.11;100.00
20624;BME280;10471;42.736;23.346;2024-03-08T06:35:55;95741.13;;;6.05;100.00
20624;BME280;10471;42.736;23.346;2024-03-08T06:38:26;95743.50;;;6.07;100.00
20624;BME280;10471;42.736;23.346;2024-03-08T06:40:52;95741.44;;;6.09;100.00
20624;BME280;10471;42.736;23.346;2024-03-08T06:43:18;95747.28;;;6.16;100.00
20624;BME280;10471;42.736;23.346;2024-03-08T06:45:44;95753.34;;;6.16;100.00
20624;BME280;10471;42.736;23.346;2024-03-08T06:48:19;95747.94;;;6.23;100.00
20624;BME280;10471;42.736;23.346;2024-03-08T06:50:45;95753.56;;;6.31;100.00
20624;BME280;10471;42.736;23.346;2024-03-08T06:53:11;95755.78;;;6.39;100.00
20624;BME280;10471;42.736;23.346;2024-03-08T06:55:37;95754.50;;;6.42;100.00
20624;BME280;10471;42.736;23.346;2024-03-08T06:58:03;95757.25;;;6.51;100.00
20624;BME280;10471;42.736;23.346;2024-03-08T07:00:28;95754.19;;;6.54;100.00
20624;BME280;10471;42.736;23.346;2024-03-08T07:02:56;95752.47;;;6.65;100.00
20624;BME280;10471;42.736;23.346;2024-03-08T07:05:22;95758.59;;;6.70;100.00
20624;BME280;10471;42.736;23.346;2024-03-08T07:07:49;95764.38;;;6.72;100.00
20624;BME280;10471;42.736;23.346;2024-03-08T07:10:16;95768.31;;;6.75;100.00
20624;BME280;10471;42.736;23.346;2024-03-08T07:12:42;95766.66;;;6.85;100.00
20624;BME280;10471;42.736;23.346;2024-03-08T07:15:08;95767.34;;;6.97;100.00
20624;BME280;10471;42.736;23.346;2024-03-08T07:17:33;95774.78;;;7.05;100.00
20624;BME280;10471;42.736;23.346;2024-03-08T07:20:00;95777.88;;;7.02;100.00
20624;BME280;10471;42.736;23.346;2024-03-08T07:22:32;95777.63;;;7.04;100.00
20624;BME280;10471;42.736;23.346;2024-03-08T07:24:58;95773.25;;;7.09;100.00
20624;BME280;10471;42.736;23.346;2024-03-08T07:27:43;95774.59;;;7.12;100.00
20624;BME280;10471;42.736;23.346;2024-03-08T07:30:09;95779.78;;;7.28;100.00
20624;BME280;10471;42.736;23.346;2024-03-08T07:32:38;95775.06;;;7.30;100.00
20624;BME280;10471;42.736;23.346;2024-03-08T07:35:04;95780.38;;;7.35;100.00
20624;BME280;10471;42.736;23.346;2024-03-08T07:37:29;95780.25;;;7.25;100.00
20624;BME280;10471;42.736;23.346;2024-03-08T07:39:55;95779.66;;;7.18;100.00
20624;BME280;10471;42.736;23.346;2024-03-08T07:42:21;95781.19;;;7.35;100.00
20624;BME280;10471;42.736;23.346;2024-03-08T07:44:48;95780.00;;;7.48;100.00
20624;BME280;10471;42.736;23.346;2024-03-08T07:47:13;95784.88;;;7.39;100.00
20624;BME280;10471;42.736;23.346;2024-03-08T07:49:39;95781.41;;;7.55;100.00
20624;BME280;10471;42.736;23.346;2024-03-08T07:52:04;95784.69;;;7.67;100.00
20624;BME280;10471;42.736;23.346;2024-03-08T07:54:32;95786.59;;;7.77;100.00
20624;BME280;10471;42.736;23.346;2024-03-08T07:56:58;95774.53;;;8.02;100.00
20624;BME280;10471;42.736;23.346;2024-03-08T07:59:23;95775.00;;;8.20;100.00
20624;BME280;10471;42.736;23.346;2024-03-08T08:01:48;95785.28;;;8.27;100.00
20624;BME280;10471;42.736;23.346;2024-03-08T08:04:14;95786.47;;;8.14;100.00
20624;BME280;10471;42.736;23.346;2024-03-08T08:06:40;95776.75;;;7.88;100.00
20624;BME280;10471;42.736;23.346;2024-03-08T08:09:08;95775.78;;;7.94;100.00
20624;BME280;10471;42.736;23.346;2024-03-08T08:11:41;95782.16;;;8.03;100.00
20624;BME280;10471;42.736;23.346;2024-03-08T08:14:09;95771.00;;;7.91;100.00
20624;BME280;10471;42.736;23.346;2024-03-08T08:16:35;95781.09;;;7.78;100.00
20624;BME280;10471;42.736;23.346;2024-03-08T08:19:02;95783.41;;;7.70;100.00
20624;BME280;10471;42.736;23.346;2024-03-08T08:21:35;95774.19;;;7.67;100.00
20624;BME280;10471;42.736;23.346;2024-03-08T08:24:02;95777.03;;;7.66;100.00
20624;BME280;10471;42.736;23.346;2024-03-08T08:26:28;95780.22;;;7.68;100.00
20624;BME280;10471;42.736;23.346;2024-03-08T08:28:53;95777.66;;;7.73;100.00
20624;BME280;10471;42.736;23.346;2024-03-08T08:31:19;95781.72;;;7.59;100.00
20624;BME280;10471;42.736;23.346;2024-03-08T08:33:45;95776.34;;;7.49;100.00
20624;BME280;10471;42.736;23.346;2024-03-08T08:36:10;95784.38;;;7.64;100.00
20624;BME280;10471;42.736;23.346;2024-03-08T08:38:35;95784.09;;;7.86;100.00
20624;BME280;10471;42.736;23.346;2024-03-08T08:41:01;95783.34;;;7.91;100.00
20624;BME280;10471;42.736;23.346;2024-03-08T08:43:27;95776.47;;;8.11;100.00
20624;BME280;10471;42.736;23.346;2024-03-08T08:45:53;95781.41;;;8.34;100.00
20624;BME280;10471;42.736;23.346;2024-03-08T08:48:20;95778.31;;;8.42;100.00
20624;BME280;10471;42.736;23.346;2024-03-08T08:50:45;95779.81;;;8.33;100.00
20624;BME280;10471;42.736;23.346;2024-03-08T08:53:12;95780.66;;;8.12;100.00
20624;BME280;10471;42.736;23.346;2024-03-08T08:55:40;95783.09;;;7.92;100.00
20624;BME280;10471;42.736;23.346;2024-03-08T08:58:05;95778.34;;;7.89;100.00
20624;BME280;10471;42.736;23.346;2024-03-08T09:00:32;95781.13;;;8.04;100.00
20624;BME280;10471;42.736;23.346;2024-03-08T09:02:59;95785.72;;;8.14;100.00
20624;BME280;10471;42.736;23.346;2024-03-08T09:05:25;95778.59;;;8.14;100.00
20624;BME280;10471;42.736;23.346;2024-03-08T09:07:51;95764.97;;;8.17;100.00
20624;BME280;10471;42.736;23.346;2024-03-08T09:10:18;95764.56;;;8.30;100.00
20624;BME280;10471;42.736;23.346;2024-03-08T09:12:44;95766.59;;;8.54;100.00
20624;BME280;10471;42.736;23.346;2024-03-08T09:15:09;95756.69;;;8.66;100.00
20624;BME280;10471;42.736;23.346;2024-03-08T09:17:37;95753.84;;;8.73;100.00
20624;BME280;10471;42.736;23.346;2024-03-08T09:20:08;95756.03;;;8.91;100.00
20624;BME280;10471;42.736;23.346;2024-03-08T09:22:35;95760.28;;;8.97;100.00
20624;BME280;10471;42.736;23.346;2024-03-08T09:25:00;95761.34;;;8.54;100.00
20624;BME280;10471;42.736;23.346;2024-03-08T09:27:27;95765.88;;;8.28;100.00
20624;BME280;10471;42.736;23.346;2024-03-08T09:29:53;95762.50;;;8.32;100.00
20624;BME280;10471;42.736;23.346;2024-03-08T09:32:18;95762.56;;;8.42;100.00
20624;BME280;10471;42.736;23.346;2024-03-08T09:34:44;95761.69;;;8.68;100.00
20624;BME280;10471;42.736;23.346;2024-03-08T09:37:09;95769.66;;;8.83;100.00
20624;BME280;10471;42.736;23.346;2024-03-08T09:39:35;95772.47;;;8.71;100.00
20624;BME280;10471;42.736;23.346;2024-03-08T09:42:01;95770.66;;;8.72;100.00
20624;BME280;10471;42.736;23.346;2024-03-08T09:44:26;95769.44;;;8.89;100.00
20624;BME280;10471;42.736;23.346;2024-03-08T09:46:54;95764.53;;;9.03;100.00
20624;BME280;10471;42.736;23.346;2024-03-08T09:49:20;95760.63;;;9.10;100.00
20624;BME280;10471;42.736;23.346;2024-03-08T09:51:45;95757.72;;;9.12;100.00
20624;BME280;10471;42.736;23.346;2024-03-08T09:54:11;95769.13;;;9.32;100.00
20624;BME280;10471;42.736;23.346;2024-03-08T09:56:39;95770.19;;;9.36;100.00
20624;BME280;10471;42.736;23.346;2024-03-08T09:59:06;95767.47;;;9.16;100.00
20624;BME280;10471;42.736;23.346;2024-03-08T10:02:01;95771.50;;;9.33;100.00
20624;BME280;10471;42.736;23.346;2024-03-08T10:04:28;95771.00;;;9.46;100.00
20624;BME280;10471;42.736;23.346;2024-03-08T10:06:57;95761.66;;;9.80;100.00
20624;BME280;10471;42.736;23.346;2024-03-08T10:09:24;95771.75;;;10.13;100.00
20624;BME280;10471;42.736;23.346;2024-03-08T10:12:01;95762.75;;;10.09;100.00
20624;BME280;10471;42.736;23.346;2024-03-08T10:14:28;95772.78;;;10.22;100.00
20624;BME280;10471;42.736;23.346;2024-03-08T10:16:53;95768.56;;;10.31;100.00
20624;BME280;10471;42.736;23.346;2024-03-08T10:19:20;95764.63;;;10.58;100.00
20624;BME280;10471;42.736;23.346;2024-03-08T10:21:52;95759.03;;;10.94;100.00
20624;BME280;10471;42.736;23.346;2024-03-08T10:24:23;95752.41;;;11.11;100.00
20624;BME280;10471;42.736;23.346;2024-03-08T10:27:01;95752.09;;;11.23;100.00
20624;BME280;10471;42.736;23.346;2024-03-08T10:29:30;95755.28;;;11.20;100.00
20624;BME280;10471;42.736;23.346;2024-03-08T10:31:55;95749.78;;;11.07;100.00
20624;BME280;10471;42.736;23.346;2024-03-08T10:34:22;95753.75;;;10.94;100.00
20624;BME280;10471;42.736;23.346;2024-03-08T10:36:50;95760.41;;;10.57;100.00
20624;BME280;10471;42.736;23.346;2024-03-08T10:39:25;95760.06;;;9.89;100.00
20624;BME280;10471;42.736;23.346;2024-03-08T10:41:58;95754.75;;;9.64;100.00
20624;BME280;10471;42.736;23.346;2024-03-08T10:47:01;95747.34;;;9.46;100.00
20624;BME280;10471;42.736;23.346;2024-03-08T10:49:38;95743.19;;;9.55;100.00
20624;BME280;10471;42.736;23.346;2024-03-08T10:52:05;95740.03;;;9.63;100.00
20624;BME280;10471;42.736;23.346;2024-03-08T10:54:34;95743.56;;;10.08;100.00
20624;BME280;10471;42.736;23.346;2024-03-08T10:57:05;95744.34;;;10.58;100.00
20624;BME280;10471;42.736;23.346;2024-03-08T10:59:32;95744.28;;;10.88;100.00
20624;BME280;10471;42.736;23.346;2024-03-08T11:01:59;95739.50;;;11.05;100.00
20624;BME280;10471;42.736;23.346;2024-03-08T11:04:25;95734.22;;;11.05;96.58
20624;BME280;10471;42.736;23.346;2024-03-08T11:06:51;95734.81;;;10.72;100.00
20624;BME280;10471;42.736;23.346;2024-03-08T11:09:33;95734.03;;;10.82;99.09
20624;BME280;10471;42.736;23.346;2024-03-08T11:12:25;95722.41;;;10.93;100.00
20624;BME280;10471;42.736;23.346;2024-03-08T11:15:01;95717.94;;;10.83;95.47
20624;BME280;10471;42.736;23.346;2024-03-08T11:19:58;95713.69;;;10.92;88.65
20624;BME280;10471;42.736;23.346;2024-03-08T11:22:28;95710.41;;;11.25;97.80
20624;BME280;10471;42.736;23.346;2024-03-08T11:25:02;95712.91;;;11.60;95.53
20624;BME280;10471;42.736;23.346;2024-03-08T11:27:29;95709.88;;;11.81;90.12
20624;BME280;10471;42.736;23.346;2024-03-08T11:30:05;95710.16;;;11.79;88.79
20624;BME280;10471;42.736;23.346;2024-03-08T11:32:46;95715.66;;;11.30;87.83
20624;BME280;10471;42.736;23.346;2024-03-08T11:35:19;95710.59;;;10.75;93.14
20624;BME280;10471;42.736;23.346;2024-03-08T11:37:45;95707.72;;;10.62;97.58
20624;BME280;10471;42.736;23.346;2024-03-08T11:40:14;95703.75;;;10.64;100.00
20624;BME280;10471;42.736;23.346;2024-03-08T11:42:47;95702.66;;;10.80;100.00
20624;BME280;10471;42.736;23.346;2024-03-08T11:45:14;95691.81;;;10.92;100.00
20624;BME280;10471;42.736;23.346;2024-03-08T11:47:43;95698.34;;;11.09;97.85
20624;BME280;10471;42.736;23.346;2024-03-08T11:50:11;95693.16;;;11.42;95.79
20624;BME280;10471;42.736;23.346;2024-03-08T11:52:37;95699.22;;;11.96;95.12
20624;BME280;10471;42.736;23.346;2024-03-08T11:55:03;95695.88;;;12.47;92.24
20624;BME280;10471;42.736;23.346;2024-03-08T11:57:30;95699.41;;;12.38;81.63
20624;BME280;10471;42.736;23.346;2024-03-08T11:59:56;95693.38;;;12.32;85.97
20624;BME280;10471;42.736;23.346;2024-03-08T12:02:34;95694.47;;;12.31;91.42
20624;BME280;10471;42.736;23.346;2024-03-08T12:05:07;95697.53;;;12.38;85.13
20624;BME280;10471;42.736;23.346;2024-03-08T12:07:35;95706.44;;;11.80;87.82
20624;BME280;10471;42.736;23.346;2024-03-08T12:10:21;95697.63;;;11.95;91.31
20624;BME280;10471;42.736;23.346;2024-03-08T12:12:48;95690.47;;;12.34;89.68
20624;BME280;10471;42.736;23.346;2024-03-08T12:15:18;95689.47;;;12.53;82.99
20624;BME280;10471;42.736;23.346;2024-03-08T12:17:45;95690.97;;;12.64;83.99
20624;BME280;10471;42.736;23.346;2024-03-08T12:20:26;95700.31;;;12.80;86.61
20624;BME280;10471;42.736;23.346;2024-03-08T12:22:54;95693.09;;;12.90;85.28
20624;BME280;10471;42.736;23.346;2024-03-08T12:25:26;95695.66;;;13.00;84.77
20624;BME280;10471;42.736;23.346;2024-03-08T12:27:52;95687.25;;;13.16;81.09
20624;BME280;10471;42.736;23.346;2024-03-08T12:30:26;95686.06;;;13.27;82.08
20624;BME280;10471;42.736;23.346;2024-03-08T12:32:59;95687.28;;;13.35;81.07
20624;BME280;10471;42.736;23.346;2024-03-08T12:35:27;95677.47;;;13.35;77.31
20624;BME280;10471;42.736;23.346;2024-03-08T12:37:54;95685.78;;;13.47;75.63
20624;BME280;10471;42.736;23.346;2024-03-08T12:40:28;95676.34;;;13.41;77.28
20624;BME280;10471;42.736;23.346;2024-03-08T12:42:57;95675.13;;;13.52;77.72
20624;BME280;10471;42.736;23.346;2024-03-08T12:45:23;95672.25;;;13.49;73.77
20624;BME280;10471;42.736;23.346;2024-03-08T12:47:53;95677.09;;;13.65;74.33
20624;BME280;10471;42.736;23.346;2024-03-08T12:50:20;95672.34;;;13.62;72.59
20624;BME280;10471;42.736;23.346;2024-03-08T12:52:45;95678.53;;;13.76;71.84
20624;BME280;10471;42.736;23.346;2024-03-08T12:55:11;95669.13;;;13.65;69.81